sensor_id;sensor_type;location;lat;lon;timestamp;temperature;humidity
4103;DHT22;2065;49.790;9.620;2023-04-24T00:01:10;16.40;58.70
4103;DHT22;2065;49.790;9.620;2023-04-24T00:03:38;16.60;58.30
4103;DHT22;2065;49.790;9.620;2023-04-24T00:06:05;16.50;57.90
4103;DHT22;2065;49.790;9.620;2023-04-24T00:08:33;16.30;58.30
4103;DHT22;2065;49.790;9.620;2023-04-24T00:11:01;16.40;58.60
4103;DHT22;2065;49.790;9.620;2023-04-24T00:13:28;16.30;58.10
4103;DHT22;2065;49.790;9.620;2023-04-24T00:15:57;16.30;58.20
4103;DHT22;2065;49.790;9.620;2023-04-24T00:18:24;16.20;58.00
4103;DHT22;2065;49.790;9.620;2023-04-24T00:20:51;16.30;58.20
4103;DHT22;2065;49.790;9.620;2023-04-24T00:23:18;16.30;57.90
4103;DHT22;2065;49.790;9.620;2023-04-24T00:25:45;16.40;58.20
4103;DHT22;2065;49.790;9.620;2023-04-24T00:28:12;16.50;57.90
4103;DHT22;2065;49.790;9.620;2023-04-24T00:30:40;16.40;58.20
4103;DHT22;2065;49.790;9.620;2023-04-24T00:33:09;16.40;58.10
4103;DHT22;2065;49.790;9.620;2023-04-24T00:35:36;16.30;57.80
4103;DHT22;2065;49.790;9.620;2023-04-24T00:38:03;16.10;58.30
4103;DHT22;2065;49.790;9.620;2023-04-24T00:40:31;16.10;58.70
4103;DHT22;2065;49.790;9.620;2023-04-24T00:42:58;16.20;59.40
4103;DHT22;2065;49.790;9.620;2023-04-24T00:45:26;16.10;58.70
4103;DHT22;2065;49.790;9.620;2023-04-24T00:47:53;16.30;58.40
4103;DHT22;2065;49.790;9.620;2023-04-24T00:50:23;16.20;58.00
4103;DHT22;2065;49.790;9.620;2023-04-24T00:52:50;16.10;59.30
4103;DHT22;2065;49.790;9.620;2023-04-24T00:55:18;15.90;58.70
4103;DHT22;2065;49.790;9.620;2023-04-24T00:57:45;15.90;59.20
4103;DHT22;2065;49.790;9.620;2023-04-24T01:00:14;16.10;59.60
4103;DHT22;2065;49.790;9.620;2023-04-24T01:02:43;15.80;59.00
4103;DHT22;2065;49.790;9.620;2023-04-24T01:05:11;15.60;58.80
4103;DHT22;2065;49.790;9.620;2023-04-24T01:07:41;15.50;59.80
4103;DHT22;2065;49.790;9.620;2023-04-24T01:10:11;15.40;59.60
4103;DHT22;2065;49.790;9.620;2023-04-24T01:12:39;15.30;60.40
4103;DHT22;2065;49.790;9.620;2023-04-24T01:15:08;15.40;59.50
4103;DHT22;2065;49.790;9.620;2023-04-24T01:17:35;15.40;60.10
4103;DHT22;2065;49.790;9.620;2023-04-24T01:20:05;15.50;59.40
4103;DHT22;2065;49.790;9.620;2023-04-24T01:22:34;15.60;59.50
4103;DHT22;2065;49.790;9.620;2023-04-24T01:25:02;15.50;59.60
4103;DHT22;2065;49.790;9.620;2023-04-24T01:27:29;15.70;58.90
4103;DHT22;2065;49.790;9.620;2023-04-24T01:29:57;15.70;58.80
4103;DHT22;2065;49.790;9.620;2023-04-24T01:32:24;16.00;58.10
4103;DHT22;2065;49.790;9.620;2023-04-24T01:34:52;16.30;58.70
4103;DHT22;2065;49.790;9.620;2023-04-24T01:37:19;16.50;58.80
4103;DHT22;2065;49.790;9.620;2023-04-24T01:39:47;16.40;57.30
4103;DHT22;2065;49.790;9.620;2023-04-24T01:42:15;16.00;57.40
4103;DHT22;2065;49.790;9.620;2023-04-24T01:44:42;15.80;58.10
4103;DHT22;2065;49.790;9.620;2023-04-24T01:47:10;15.90;58.40
4103;DHT22;2065;49.790;9.620;2023-04-24T01:49:38;16.10;57.90
4103;DHT22;2065;49.790;9.620;2023-04-24T01:52:05;16.20;57.80
4103;DHT22;2065;49.790;9.620;2023-04-24T01:54:33;16.30;57.20
4103;DHT22;2065;49.790;9.620;2023-04-24T01:57:02;16.40;57.00
4103;DHT22;2065;49.790;9.620;2023-04-24T01:59:30;16.40;57.40
4103;DHT22;2065;49.790;9.620;2023-04-24T02:01:59;16.30;57.70
4103;DHT22;2065;49.790;9.620;2023-04-24T02:04:26;16.30;57.10
4103;DHT22;2065;49.790;9.620;2023-04-24T02:06:53;16.30;57.80
4103;DHT22;2065;49.790;9.620;2023-04-24T02:09:20;16.30;58.10
4103;DHT22;2065;49.790;9.620;2023-04-24T02:11:47;16.50;57.90
4103;DHT22;2065;49.790;9.620;2023-04-24T02:14:16;16.60;57.80
4103;DHT22;2065;49.790;9.620;2023-04-24T02:16:44;16.50;56.90
4103;DHT22;2065;49.790;9.620;2023-04-24T02:19:11;16.50;57.40
4103;DHT22;2065;49.790;9.620;2023-04-24T02:21:38;16.40;57.00
4103;DHT22;2065;49.790;9.620;2023-04-24T02:24:08;16.40;57.00
4103;DHT22;2065;49.790;9.620;2023-04-24T02:26:35;16.30;57.80
4103;DHT22;2065;49.790;9.620;2023-04-24T02:29:03;16.00;57.80
4103;DHT22;2065;49.790;9.620;2023-04-24T02:31:31;16.20;57.70
4103;DHT22;2065;49.790;9.620;2023-04-24T02:33:58;16.30;57.60
4103;DHT22;2065;49.790;9.620;2023-04-24T02:36:25;16.20;57.50
4103;DHT22;2065;49.790;9.620;2023-04-24T02:38:52;16.20;57.50
4103;DHT22;2065;49.790;9.620;2023-04-24T02:41:19;15.90;58.30
4103;DHT22;2065;49.790;9.620;2023-04-24T02:43:46;15.80;58.50
4103;DHT22;2065;49.790;9.620;2023-04-24T02:46:13;15.90;58.30
4103;DHT22;2065;49.790;9.620;2023-04-24T02:48:42;16.00;57.90
4103;DHT22;2065;49.790;9.620;2023-04-24T02:51:09;15.80;57.60
4103;DHT22;2065;49.790;9.620;2023-04-24T02:53:36;15.80;58.80
4103;DHT22;2065;49.790;9.620;2023-04-24T02:56:03;16.00;58.40
4103;DHT22;2065;49.790;9.620;2023-04-24T02:58:30;16.30;58.10
4103;DHT22;2065;49.790;9.620;2023-04-24T03:00:57;16.40;57.70
4103;DHT22;2065;49.790;9.620;2023-04-24T03:03:24;16.50;56.50
4103;DHT22;2065;49.790;9.620;2023-04-24T03:05:53;16.50;56.90
4103;DHT22;2065;49.790;9.620;2023-04-24T03:08:21;16.40;56.80
4103;DHT22;2065;49.790;9.620;2023-04-24T03:10:48;16.20;56.50
4103;DHT22;2065;49.790;9.620;2023-04-24T03:13:16;16.20;56.80
4103;DHT22;2065;49.790;9.620;2023-04-24T03:15:43;16.00;57.50
4103;DHT22;2065;49.790;9.620;2023-04-24T03:18:10;15.90;57.50
4103;DHT22;2065;49.790;9.620;2023-04-24T03:20:37;16.00;57.20
4103;DHT22;2065;49.790;9.620;2023-04-24T03:23:06;15.70;58.10
4103;DHT22;2065;49.790;9.620;2023-04-24T03:25:34;15.70;58.50
4103;DHT22;2065;49.790;9.620;2023-04-24T03:28:08;15.80;58.20
4103;DHT22;2065;49.790;9.620;2023-04-24T03:30:42;15.90;58.20
4103;DHT22;2065;49.790;9.620;2023-04-24T03:33:10;15.90;57.60
4103;DHT22;2065;49.790;9.620;2023-04-24T03:35:44;16.10;57.90
4103;DHT22;2065;49.790;9.620;2023-04-24T03:38:13;16.10;56.90
4103;DHT22;2065;49.790;9.620;2023-04-24T03:40:53;16.00;57.60
4103;DHT22;2065;49.790;9.620;2023-04-24T03:43:33;16.20;57.70
4103;DHT22;2065;49.790;9.620;2023-04-24T03:46:01;16.40;57.50
4103;DHT22;2065;49.790;9.620;2023-04-24T03:48:30;16.40;57.10
4103;DHT22;2065;49.790;9.620;2023-04-24T03:50:58;16.00;57.10
4103;DHT22;2065;49.790;9.620;2023-04-24T03:53:26;16.00;57.70
4103;DHT22;2065;49.790;9.620;2023-04-24T03:55:54;15.90;57.70
4103;DHT22;2065;49.790;9.620;2023-04-24T03:58:22;16.10;57.80
4103;DHT22;2065;49.790;9.620;2023-04-24T04:00:50;16.30;57.30
4103;DHT22;2065;49.790;9.620;2023-04-24T04:03:37;15.90;57.40
4103;DHT22;2065;49.790;9.620;2023-04-24T04:06:05;16.00;58.10
4103;DHT22;2065;49.790;9.620;2023-04-24T04:08:34;16.10;57.70
4103;DHT22;2065;49.790;9.620;2023-04-24T04:11:02;16.00;57.70
4103;DHT22;2065;49.790;9.620;2023-04-24T04:13:29;16.10;57.60
4103;DHT22;2065;49.790;9.620;2023-04-24T04:15:56;16.20;57.80
4103;DHT22;2065;49.790;9.620;2023-04-24T04:18:24;16.20;57.50
4103;DHT22;2065;49.790;9.620;2023-04-24T04:20:51;16.20;58.20
4103;DHT22;2065;49.790;9.620;2023-04-24T04:23:18;16.30;58.70
4103;DHT22;2065;49.790;9.620;2023-04-24T04:26:16;16.20;59.00
4103;DHT22;2065;49.790;9.620;2023-04-24T04:29:01;15.90;61.20
4103;DHT22;2065;49.790;9.620;2023-04-24T04:31:30;15.60;62.70
4103;DHT22;2065;49.790;9.620;2023-04-24T04:34:01;15.30;62.00
4103;DHT22;2065;49.790;9.620;2023-04-24T04:36:30;15.10;62.00
4103;DHT22;2065;49.790;9.620;2023-04-24T04:39:07;15.10;62.90
4103;DHT22;2065;49.790;9.620;2023-04-24T04:41:52;15.10;61.70
4103;DHT22;2065;49.790;9.620;2023-04-24T04:44:21;15.00;62.30
4103;DHT22;2065;49.790;9.620;2023-04-24T04:46:50;15.10;62.20
4103;DHT22;2065;49.790;9.620;2023-04-24T04:49:25;15.10;61.90
4103;DHT22;2065;49.790;9.620;2023-04-24T04:51:54;15.00;62.10
4103;DHT22;2065;49.790;9.620;2023-04-24T04:54:24;15.20;62.40
4103;DHT22;2065;49.790;9.620;2023-04-24T04:56:52;15.20;62.00
4103;DHT22;2065;49.790;9.620;2023-04-24T04:59:20;15.00;62.00
4103;DHT22;2065;49.790;9.620;2023-04-24T05:01:50;14.80;62.40
4103;DHT22;2065;49.790;9.620;2023-04-24T05:04:17;14.70;62.90
4103;DHT22;2065;49.790;9.620;2023-04-24T05:06:44;14.80;62.60
4103;DHT22;2065;49.790;9.620;2023-04-24T05:09:12;14.40;61.70
4103;DHT22;2065;49.790;9.620;2023-04-24T05:11:47;14.50;62.40
4103;DHT22;2065;49.790;9.620;2023-04-24T05:14:15;14.50;62.30
4103;DHT22;2065;49.790;9.620;2023-04-24T05:16:44;14.30;61.10
4103;DHT22;2065;49.790;9.620;2023-04-24T05:19:13;14.20;61.60
4103;DHT22;2065;49.790;9.620;2023-04-24T05:21:41;14.20;62.30
4103;DHT22;2065;49.790;9.620;2023-04-24T05:24:09;14.20;62.70
4103;DHT22;2065;49.790;9.620;2023-04-24T05:26:48;14.30;61.80
4103;DHT22;2065;49.790;9.620;2023-04-24T05:29:21;14.00;60.70
4103;DHT22;2065;49.790;9.620;2023-04-24T05:31:48;13.90;60.80
4103;DHT22;2065;49.790;9.620;2023-04-24T05:34:15;14.00;61.70
4103;DHT22;2065;49.790;9.620;2023-04-24T05:36:48;14.00;61.00
4103;DHT22;2065;49.790;9.620;2023-04-24T05:39:16;13.80;59.80
4103;DHT22;2065;49.790;9.620;2023-04-24T05:41:43;13.90;60.50
4103;DHT22;2065;49.790;9.620;2023-04-24T05:44:10;14.00;60.00
4103;DHT22;2065;49.790;9.620;2023-04-24T05:46:39;14.20;60.00
4103;DHT22;2065;49.790;9.620;2023-04-24T05:49:06;14.20;59.70
4103;DHT22;2065;49.790;9.620;2023-04-24T05:51:34;14.30;59.30
4103;DHT22;2065;49.790;9.620;2023-04-24T05:54:01;14.30;58.60
4103;DHT22;2065;49.790;9.620;2023-04-24T05:56:29;14.20;58.90
4103;DHT22;2065;49.790;9.620;2023-04-24T05:58:57;14.20;58.70
4103;DHT22;2065;49.790;9.620;2023-04-24T06:01:24;14.00;59.20
4103;DHT22;2065;49.790;9.620;2023-04-24T06:04:02;14.00;59.20
4103;DHT22;2065;49.790;9.620;2023-04-24T06:06:30;13.90;59.50
4103;DHT22;2065;49.790;9.620;2023-04-24T06:08:58;14.00;59.20
4103;DHT22;2065;49.790;9.620;2023-04-24T06:11:26;13.80;59.40
4103;DHT22;2065;49.790;9.620;2023-04-24T06:13:53;13.70;58.90
4103;DHT22;2065;49.790;9.620;2023-04-24T06:16:49;13.70;59.90
4103;DHT22;2065;49.790;9.620;2023-04-24T06:19:29;13.80;59.60
4103;DHT22;2065;49.790;9.620;2023-04-24T06:21:56;14.10;59.20
4103;DHT22;2065;49.790;9.620;2023-04-24T06:24:27;14.20;57.80
4103;DHT22;2065;49.790;9.620;2023-04-24T06:26:54;14.20;58.50
4103;DHT22;2065;49.790;9.620;2023-04-24T06:29:22;14.30;58.20
4103;DHT22;2065;49.790;9.620;2023-04-24T06:31:50;14.40;57.80
4103;DHT22;2065;49.790;9.620;2023-04-24T06:34:17;14.30;57.80
4103;DHT22;2065;49.790;9.620;2023-04-24T06:36:46;14.30;57.30
4103;DHT22;2065;49.790;9.620;2023-04-24T06:39:13;14.40;56.60
4103;DHT22;2065;49.790;9.620;2023-04-24T06:41:40;14.40;56.50
4103;DHT22;2065;49.790;9.620;2023-04-24T06:44:14;14.50;56.70
4103;DHT22;2065;49.790;9.620;2023-04-24T06:46:42;14.50;56.10
4103;DHT22;2065;49.790;9.620;2023-04-24T06:49:09;14.60;56.10
4103;DHT22;2065;49.790;9.620;2023-04-24T06:51:36;14.70;55.30
4103;DHT22;2065;49.790;9.620;2023-04-24T06:54:05;14.60;55.00
4103;DHT22;2065;49.790;9.620;2023-04-24T06:56:32;14.70;54.80
4103;DHT22;2065;49.790;9.620;2023-04-24T06:58:59;14.70;54.10
4103;DHT22;2065;49.790;9.620;2023-04-24T07:01:26;14.80;54.00
4103;DHT22;2065;49.790;9.620;2023-04-24T07:03:53;14.90;54.80
4103;DHT22;2065;49.790;9.620;2023-04-24T07:06:20;14.90;53.80
4103;DHT22;2065;49.790;9.620;2023-04-24T07:08:49;15.00;52.80
4103;DHT22;2065;49.790;9.620;2023-04-24T07:11:17;15.20;54.20
4103;DHT22;2065;49.790;9.620;2023-04-24T07:13:44;15.40;54.20
4103;DHT22;2065;49.790;9.620;2023-04-24T07:16:12;15.40;52.90
4103;DHT22;2065;49.790;9.620;2023-04-24T07:18:39;15.50;53.30
4103;DHT22;2065;49.790;9.620;2023-04-24T07:21:06;15.60;53.40
4103;DHT22;2065;49.790;9.620;2023-04-24T07:23:33;15.80;52.10
4103;DHT22;2065;49.790;9.620;2023-04-24T07:26:00;15.80;52.80
4103;DHT22;2065;49.790;9.620;2023-04-24T07:28:29;15.70;52.00
4103;DHT22;2065;49.790;9.620;2023-04-24T07:30:57;15.60;52.20
4103;DHT22;2065;49.790;9.620;2023-04-24T07:33:25;15.80;52.70
4103;DHT22;2065;49.790;9.620;2023-04-24T07:35:52;15.60;50.40
4103;DHT22;2065;49.790;9.620;2023-04-24T07:38:19;15.50;50.90
4103;DHT22;2065;49.790;9.620;2023-04-24T07:40:47;15.30;50.50
4103;DHT22;2065;49.790;9.620;2023-04-24T07:43:16;15.30;50.80
4103;DHT22;2065;49.790;9.620;2023-04-24T07:45:44;15.10;50.90
4103;DHT22;2065;49.790;9.620;2023-04-24T07:48:12;15.20;51.70
4103;DHT22;2065;49.790;9.620;2023-04-24T07:50:40;15.10;50.20
4103;DHT22;2065;49.790;9.620;2023-04-24T07:53:07;15.00;51.10
4103;DHT22;2065;49.790;9.620;2023-04-24T07:55:34;15.10;50.70
4103;DHT22;2065;49.790;9.620;2023-04-24T07:58:01;15.10;50.90
4103;DHT22;2065;49.790;9.620;2023-04-24T08:00:29;15.00;49.30
4103;DHT22;2065;49.790;9.620;2023-04-24T08:02:57;15.00;50.50
4103;DHT22;2065;49.790;9.620;2023-04-24T08:05:24;15.10;50.40
4103;DHT22;2065;49.790;9.620;2023-04-24T08:07:54;15.20;50.70
4103;DHT22;2065;49.790;9.620;2023-04-24T08:10:21;15.20;50.40
4103;DHT22;2065;49.790;9.620;2023-04-24T08:12:48;15.20;49.80
4103;DHT22;2065;49.790;9.620;2023-04-24T08:15:15;15.30;49.70
4103;DHT22;2065;49.790;9.620;2023-04-24T08:17:42;14.80;49.20
4103;DHT22;2065;49.790;9.620;2023-04-24T08:20:11;14.70;50.50
4103;DHT22;2065;49.790;9.620;2023-04-24T08:22:40;14.90;50.90
4103;DHT22;2065;49.790;9.620;2023-04-24T08:25:08;14.80;50.90
4103;DHT22;2065;49.790;9.620;2023-04-24T08:27:35;14.90;50.40
4103;DHT22;2065;49.790;9.620;2023-04-24T08:30:05;15.00;50.20
4103;DHT22;2065;49.790;9.620;2023-04-24T08:32:33;15.20;50.20
4103;DHT22;2065;49.790;9.620;2023-04-24T08:35:00;15.20;50.10
4103;DHT22;2065;49.790;9.620;2023-04-24T08:37:29;15.30;50.00
4103;DHT22;2065;49.790;9.620;2023-04-24T08:39:56;15.30;50.50
4103;DHT22;2065;49.790;9.620;2023-04-24T08:42:23;15.30;50.40
4103;DHT22;2065;49.790;9.620;2023-04-24T08:44:50;15.60;50.80
4103;DHT22;2065;49.790;9.620;2023-04-24T08:47:18;15.80;49.60
4103;DHT22;2065;49.790;9.620;2023-04-24T08:49:48;15.80;48.50
4103;DHT22;2065;49.790;9.620;2023-04-24T08:52:15;16.10;48.70
4103;DHT22;2065;49.790;9.620;2023-04-24T08:54:45;16.30;49.10
4103;DHT22;2065;49.790;9.620;2023-04-24T08:57:13;16.20;48.30
4103;DHT22;2065;49.790;9.620;2023-04-24T08:59:41;16.30;48.00
4103;DHT22;2065;49.790;9.620;2023-04-24T09:02:10;16.30;47.60
4103;DHT22;2065;49.790;9.620;2023-04-24T09:04:38;16.40;48.40
4103;DHT22;2065;49.790;9.620;2023-04-24T09:07:08;16.60;48.50
4103;DHT22;2065;49.790;9.620;2023-04-24T09:09:36;16.80;47.80
4103;DHT22;2065;49.790;9.620;2023-04-24T09:12:06;16.90;47.20
4103;DHT22;2065;49.790;9.620;2023-04-24T09:14:35;16.70;46.60
4103;DHT22;2065;49.790;9.620;2023-04-24T09:17:05;16.50;46.90
4103;DHT22;2065;49.790;9.620;2023-04-24T09:19:32;16.30;45.90
4103;DHT22;2065;49.790;9.620;2023-04-24T09:21:59;16.50;46.10
4103;DHT22;2065;49.790;9.620;2023-04-24T09:24:31;16.80;46.30
4103;DHT22;2065;49.790;9.620;2023-04-24T09:26:58;16.90;45.80
4103;DHT22;2065;49.790;9.620;2023-04-24T09:29:28;16.70;46.00
4103;DHT22;2065;49.790;9.620;2023-04-24T09:31:55;16.80;46.80
4103;DHT22;2065;49.790;9.620;2023-04-24T09:34:23;16.60;45.00
4103;DHT22;2065;49.790;9.620;2023-04-24T09:36:51;16.40;45.70
4103;DHT22;2065;49.790;9.620;2023-04-24T09:39:18;16.50;45.30
4103;DHT22;2065;49.790;9.620;2023-04-24T09:41:47;16.30;45.10
4103;DHT22;2065;49.790;9.620;2023-04-24T09:44:16;15.90;46.90
4103;DHT22;2065;49.790;9.620;2023-04-24T09:46:46;15.80;46.60
4103;DHT22;2065;49.790;9.620;2023-04-24T09:49:16;15.60;46.50
4103;DHT22;2065;49.790;9.620;2023-04-24T09:51:47;15.60;46.30
4103;DHT22;2065;49.790;9.620;2023-04-24T09:54:15;15.40;46.30
4103;DHT22;2065;49.790;9.620;2023-04-24T09:56:44;15.60;47.10
4103;DHT22;2065;49.790;9.620;2023-04-24T09:59:12;15.90;45.70
4103;DHT22;2065;49.790;9.620;2023-04-24T10:01:40;16.30;46.00
4103;DHT22;2065;49.790;9.620;2023-04-24T10:04:17;16.30;44.70
4103;DHT22;2065;49.790;9.620;2023-04-24T10:06:45;16.10;45.60
4103;DHT22;2065;49.790;9.620;2023-04-24T10:09:13;16.20;45.20
4103;DHT22;2065;49.790;9.620;2023-04-24T10:11:42;16.10;45.00
4103;DHT22;2065;49.790;9.620;2023-04-24T10:14:13;15.80;45.40
4103;DHT22;2065;49.790;9.620;2023-04-24T10:16:41;15.70;45.60
4103;DHT22;2065;49.790;9.620;2023-04-24T10:19:09;15.80;45.00
4103;DHT22;2065;49.790;9.620;2023-04-24T10:21:40;15.80;45.20
4103;DHT22;2065;49.790;9.620;2023-04-24T10:24:12;15.90;45.10
4103;DHT22;2065;49.790;9.620;2023-04-24T10:26:40;15.90;45.70
4103;DHT22;2065;49.790;9.620;2023-04-24T10:29:07;15.80;45.70
4103;DHT22;2065;49.790;9.620;2023-04-24T10:31:36;16.00;46.10
4103;DHT22;2065;49.790;9.620;2023-04-24T10:34:05;15.90;45.50
4103;DHT22;2065;49.790;9.620;2023-04-24T10:36:33;15.80;46.00
4103;DHT22;2065;49.790;9.620;2023-04-24T10:39:05;15.90;45.90
4103;DHT22;2065;49.790;9.620;2023-04-24T10:41:33;15.90;46.50
4103;DHT22;2065;49.790;9.620;2023-04-24T10:44:07;16.10;46.10
4103;DHT22;2065;49.790;9.620;2023-04-24T10:46:35;16.20;45.90
4103;DHT22;2065;49.790;9.620;2023-04-24T10:49:04;16.20;45.30
4103;DHT22;2065;49.790;9.620;2023-04-24T10:51:45;16.00;45.10
4103;DHT22;2065;49.790;9.620;2023-04-24T10:54:24;15.90;45.80
4103;DHT22;2065;49.790;9.620;2023-04-24T10:56:52;15.90;45.80
4103;DHT22;2065;49.790;9.620;2023-04-24T10:59:27;16.10;45.20
4103;DHT22;2065;49.790;9.620;2023-04-24T11:01:54;16.00;45.40
4103;DHT22;2065;49.790;9.620;2023-04-24T11:04:32;15.90;46.00
4103;DHT22;2065;49.790;9.620;2023-04-24T11:07:01;15.80;45.60
4103;DHT22;2065;49.790;9.620;2023-04-24T11:09:31;15.80;46.40
4103;DHT22;2065;49.790;9.620;2023-04-24T11:12:04;15.90;46.60
4103;DHT22;2065;49.790;9.620;2023-04-24T11:15:00;16.00;46.30
4103;DHT22;2065;49.790;9.620;2023-04-24T11:17:31;15.70;47.20
4103;DHT22;2065;49.790;9.620;2023-04-24T11:20:02;15.40;47.20
4103;DHT22;2065;49.790;9.620;2023-04-24T11:22:34;15.50;47.40
4103;DHT22;2065;49.790;9.620;2023-04-24T11:25:03;15.50;46.70
4103;DHT22;2065;49.790;9.620;2023-04-24T11:27:38;15.40;47.10
4103;DHT22;2065;49.790;9.620;2023-04-24T11:30:06;15.40;47.50
4103;DHT22;2065;49.790;9.620;2023-04-24T11:32:35;15.30;47.30
4103;DHT22;2065;49.790;9.620;2023-04-24T11:35:04;15.40;47.70
4103;DHT22;2065;49.790;9.620;2023-04-24T11:37:36;15.50;48.20
4103;DHT22;2065;49.790;9.620;2023-04-24T11:40:07;15.50;48.60
4103;DHT22;2065;49.790;9.620;2023-04-24T11:42:35;15.50;47.40
4103;DHT22;2065;49.790;9.620;2023-04-24T11:45:07;15.30;47.60
4103;DHT22;2065;49.790;9.620;2023-04-24T11:47:35;15.40;48.10
4103;DHT22;2065;49.790;9.620;2023-04-24T11:50:04;15.60;48.30
4103;DHT22;2065;49.790;9.620;2023-04-24T11:52:32;15.90;47.90
4103;DHT22;2065;49.790;9.620;2023-04-24T11:55:00;16.10;48.20
4103;DHT22;2065;49.790;9.620;2023-04-24T11:57:28;16.10;47.10
4103;DHT22;2065;49.790;9.620;2023-04-24T11:59:59;16.10;47.50
4103;DHT22;2065;49.790;9.620;2023-04-24T12:02:27;16.20;47.00
4103;DHT22;2065;49.790;9.620;2023-04-24T12:04:54;16.20;46.80
4103;DHT22;2065;49.790;9.620;2023-04-24T12:07:22;16.10;46.20
4103;DHT22;2065;49.790;9.620;2023-04-24T12:09:55;16.10;46.30
4103;DHT22;2065;49.790;9.620;2023-04-24T12:12:25;16.20;46.20
4103;DHT22;2065;49.790;9.620;2023-04-24T12:14:55;15.80;45.10
4103;DHT22;2065;49.790;9.620;2023-04-24T12:17:27;15.70;46.10
4103;DHT22;2065;49.790;9.620;2023-04-24T12:19:57;15.60;45.60
4103;DHT22;2065;49.790;9.620;2023-04-24T12:22:26;15.70;45.80
4103;DHT22;2065;49.790;9.620;2023-04-24T12:24:58;15.80;45.80
4103;DHT22;2065;49.790;9.620;2023-04-24T12:27:27;15.80;46.00
4103;DHT22;2065;49.790;9.620;2023-04-24T12:29:57;15.90;47.00
4103;DHT22;2065;49.790;9.620;2023-04-24T12:32:25;16.20;46.10
4103;DHT22;2065;49.790;9.620;2023-04-24T12:34:52;16.30;45.80
4103;DHT22;2065;49.790;9.620;2023-04-24T12:37:20;16.20;45.60
4103;DHT22;2065;49.790;9.620;2023-04-24T12:40:01;16.10;45.30
4103;DHT22;2065;49.790;9.620;2023-04-24T12:42:30;16.00;45.30
4103;DHT22;2065;49.790;9.620;2023-04-24T12:45:00;16.00;46.10
4103;DHT22;2065;49.790;9.620;2023-04-24T12:47:29;15.90;46.20
4103;DHT22;2065;49.790;9.620;2023-04-24T12:49:56;15.80;46.40
4103;DHT22;2065;49.790;9.620;2023-04-24T12:52:23;15.80;47.40
4103;DHT22;2065;49.790;9.620;2023-04-24T12:54:53;15.90;47.30
4103;DHT22;2065;49.790;9.620;2023-04-24T12:57:21;16.10;46.60
4103;DHT22;2065;49.790;9.620;2023-04-24T12:59:48;16.10;46.20
4103;DHT22;2065;49.790;9.620;2023-04-24T13:02:16;15.90;46.60
4103;DHT22;2065;49.790;9.620;2023-04-24T13:04:44;15.90;46.50
4103;DHT22;2065;49.790;9.620;2023-04-24T13:07:12;15.90;47.10
4103;DHT22;2065;49.790;9.620;2023-04-24T13:09:40;15.90;46.90
4103;DHT22;2065;49.790;9.620;2023-04-24T13:12:08;15.90;47.10
4103;DHT22;2065;49.790;9.620;2023-04-24T13:14:35;16.00;47.30
4103;DHT22;2065;49.790;9.620;2023-04-24T13:17:03;16.20;46.60
4103;DHT22;2065;49.790;9.620;2023-04-24T13:19:35;16.70;46.30
4103;DHT22;2065;49.790;9.620;2023-04-24T13:22:03;16.70;45.50
4103;DHT22;2065;49.790;9.620;2023-04-24T13:24:30;16.80;46.10
4103;DHT22;2065;49.790;9.620;2023-04-24T13:26:58;16.70;45.30
4103;DHT22;2065;49.790;9.620;2023-04-24T13:29:26;16.30;44.70
4103;DHT22;2065;49.790;9.620;2023-04-24T13:31:53;16.20;45.80
4103;DHT22;2065;49.790;9.620;2023-04-24T13:34:21;15.80;46.70
4103;DHT22;2065;49.790;9.620;2023-04-24T13:36:50;15.40;49.30
4103;DHT22;2065;49.790;9.620;2023-04-24T13:39:18;15.30;52.50
4103;DHT22;2065;49.790;9.620;2023-04-24T13:41:45;15.00;54.40
4103;DHT22;2065;49.790;9.620;2023-04-24T13:44:13;14.70;57.60
4103;DHT22;2065;49.790;9.620;2023-04-24T13:46:41;14.80;57.20
4103;DHT22;2065;49.790;9.620;2023-04-24T13:49:09;15.10;56.00
4103;DHT22;2065;49.790;9.620;2023-04-24T13:51:36;15.00;54.40
4103;DHT22;2065;49.790;9.620;2023-04-24T13:54:04;14.60;55.90
4103;DHT22;2065;49.790;9.620;2023-04-24T13:56:31;14.80;56.80
4103;DHT22;2065;49.790;9.620;2023-04-24T13:58:58;15.00;57.00
4103;DHT22;2065;49.790;9.620;2023-04-24T14:01:26;15.20;56.60
4103;DHT22;2065;49.790;9.620;2023-04-24T14:03:53;15.30;55.90
4103;DHT22;2065;49.790;9.620;2023-04-24T14:06:21;15.40;56.40
4103;DHT22;2065;49.790;9.620;2023-04-24T14:08:49;15.80;56.60
4103;DHT22;2065;49.790;9.620;2023-04-24T14:11:18;16.10;54.60
4103;DHT22;2065;49.790;9.620;2023-04-24T14:13:45;16.20;54.10
4103;DHT22;2065;49.790;9.620;2023-04-24T14:16:13;16.40;54.60
4103;DHT22;2065;49.790;9.620;2023-04-24T14:18:40;16.50;53.20
4103;DHT22;2065;49.790;9.620;2023-04-24T14:21:08;16.70;52.90
4103;DHT22;2065;49.790;9.620;2023-04-24T14:23:35;17.00;51.50
4103;DHT22;2065;49.790;9.620;2023-04-24T14:26:02;17.20;51.70
4103;DHT22;2065;49.790;9.620;2023-04-24T14:28:30;17.50;51.50
4103;DHT22;2065;49.790;9.620;2023-04-24T14:30:57;17.90;50.60
4103;DHT22;2065;49.790;9.620;2023-04-24T14:33:24;18.00;48.00
4103;DHT22;2065;49.790;9.620;2023-04-24T14:35:51;18.00;47.80
4103;DHT22;2065;49.790;9.620;2023-04-24T14:38:18;17.90;48.10
4103;DHT22;2065;49.790;9.620;2023-04-24T14:40:45;17.90;48.70
4103;DHT22;2065;49.790;9.620;2023-04-24T14:43:12;18.10;48.30
4103;DHT22;2065;49.790;9.620;2023-04-24T14:45:41;18.20;48.00
4103;DHT22;2065;49.790;9.620;2023-04-24T14:48:08;18.10;46.80
4103;DHT22;2065;49.790;9.620;2023-04-24T14:50:36;18.10;47.30
4103;DHT22;2065;49.790;9.620;2023-04-24T14:53:04;18.00;46.30
4103;DHT22;2065;49.790;9.620;2023-04-24T14:55:31;17.90;45.40
4103;DHT22;2065;49.790;9.620;2023-04-24T14:57:59;17.40;46.50
4103;DHT22;2065;49.790;9.620;2023-04-24T15:00:27;17.30;45.50
4103;DHT22;2065;49.790;9.620;2023-04-24T15:02:55;17.20;45.40
4103;DHT22;2065;49.790;9.620;2023-04-24T15:05:22;17.10;45.10
4103;DHT22;2065;49.790;9.620;2023-04-24T15:07:50;16.90;45.60
4103;DHT22;2065;49.790;9.620;2023-04-24T15:10:17;16.80;45.30
4103;DHT22;2065;49.790;9.620;2023-04-24T15:12:44;16.80;45.40
4103;DHT22;2065;49.790;9.620;2023-04-24T15:15:11;16.40;45.40
4103;DHT22;2065;49.790;9.620;2023-04-24T15:17:38;16.30;44.60
4103;DHT22;2065;49.790;9.620;2023-04-24T15:20:08;16.20;46.20
4103;DHT22;2065;49.790;9.620;2023-04-24T15:22:35;16.30;46.70
4103;DHT22;2065;49.790;9.620;2023-04-24T15:25:03;16.40;46.00
4103;DHT22;2065;49.790;9.620;2023-04-24T15:27:39;16.40;44.60
4103;DHT22;2065;49.790;9.620;2023-04-24T15:30:08;16.40;43.70
4103;DHT22;2065;49.790;9.620;2023-04-24T15:32:35;16.40;44.70
4103;DHT22;2065;49.790;9.620;2023-04-24T15:35:03;16.40;46.00
4103;DHT22;2065;49.790;9.620;2023-04-24T15:37:31;16.50;45.30
4103;DHT22;2065;49.790;9.620;2023-04-24T15:39:58;16.40;45.30
4103;DHT22;2065;49.790;9.620;2023-04-24T15:42:25;16.40;45.10
4103;DHT22;2065;49.790;9.620;2023-04-24T15:44:52;16.50;45.60
4103;DHT22;2065;49.790;9.620;2023-04-24T15:47:20;16.70;45.40
4103;DHT22;2065;49.790;9.620;2023-04-24T15:49:47;16.80;45.10
4103;DHT22;2065;49.790;9.620;2023-04-24T15:52:14;17.10;44.10
4103;DHT22;2065;49.790;9.620;2023-04-24T15:54:42;17.10;44.00
4103;DHT22;2065;49.790;9.620;2023-04-24T15:57:09;17.30;43.80
4103;DHT22;2065;49.790;9.620;2023-04-24T15:59:38;17.40;44.60
4103;DHT22;2065;49.790;9.620;2023-04-24T16:02:05;17.80;43.80
4103;DHT22;2065;49.790;9.620;2023-04-24T16:04:32;17.70;43.40
4103;DHT22;2065;49.790;9.620;2023-04-24T16:07:00;17.60;44.40
4103;DHT22;2065;49.790;9.620;2023-04-24T16:09:27;17.30;44.10
4103;DHT22;2065;49.790;9.620;2023-04-24T16:11:55;17.00;43.90